sensor_id;sensor_type;location;lat;lon;timestamp;temperature;humidity
3876;DHT22;1953;51.222;6.624;2022-08-24T00:05:40;23.90;1.00
3876;DHT22;1953;51.222;6.624;2022-08-24T00:10:22;23.80;1.00
3876;DHT22;1953;51.222;6.624;2022-08-24T00:15:07;23.70;1.00
3876;DHT22;1953;51.222;6.624;2022-08-24T00:19:50;23.60;1.00
3876;DHT22;1953;51.222;6.624;2022-08-24T00:24:34;23.60;1.00
3876;DHT22;1953;51.222;6.624;2022-08-24T00:29:17;23.50;1.00
3876;DHT22;1953;51.222;6.624;2022-08-24T00:34:00;23.60;1.00
3876;DHT22;1953;51.222;6.624;2022-08-24T00:38:43;23.50;1.00
3876;DHT22;1953;51.222;6.624;2022-08-24T00:43:27;23.40;1.00
3876;DHT22;1953;51.222;6.624;2022-08-24T00:48:13;23.30;1.00
3876;DHT22;1953;51.222;6.624;2022-08-24T00:52:59;23.30;1.00
3876;DHT22;1953;51.222;6.624;2022-08-24T00:57:45;23.30;1.00
3876;DHT22;1953;51.222;6.624;2022-08-24T01:02:34;23.30;1.00
3876;DHT22;1953;51.222;6.624;2022-08-24T01:07:21;23.30;1.00
3876;DHT22;1953;51.222;6.624;2022-08-24T01:12:04;23.20;1.00
3876;DHT22;1953;51.222;6.624;2022-08-24T01:16:47;23.10;1.00
3876;DHT22;1953;51.222;6.624;2022-08-24T01:21:56;23.10;1.00
3876;DHT22;1953;51.222;6.624;2022-08-24T01:26:46;23.10;1.00
3876;DHT22;1953;51.222;6.624;2022-08-24T01:31:30;23.00;1.00
3876;DHT22;1953;51.222;6.624;2022-08-24T01:36:17;23.40;1.00
3876;DHT22;1953;51.222;6.624;2022-08-24T01:41:02;22.90;1.00
3876;DHT22;1953;51.222;6.624;2022-08-24T01:45:46;22.80;1.00
3876;DHT22;1953;51.222;6.624;2022-08-24T01:50:29;22.70;1.00
3876;DHT22;1953;51.222;6.624;2022-08-24T01:55:14;22.60;1.00
3876;DHT22;1953;51.222;6.624;2022-08-24T01:59:56;22.60;1.00
3876;DHT22;1953;51.222;6.624;2022-08-24T02:04:40;22.60;1.00
3876;DHT22;1953;51.222;6.624;2022-08-24T02:09:23;22.60;1.00
3876;DHT22;1953;51.222;6.624;2022-08-24T02:14:06;22.50;1.00
3876;DHT22;1953;51.222;6.624;2022-08-24T02:18:48;22.50;1.00
3876;DHT22;1953;51.222;6.624;2022-08-24T02:23:32;22.50;1.00
3876;DHT22;1953;51.222;6.624;2022-08-24T02:28:15;22.50;1.00
3876;DHT22;1953;51.222;6.624;2022-08-24T02:32:58;22.40;1.00
3876;DHT22;1953;51.222;6.624;2022-08-24T02:37:41;22.30;1.00
3876;DHT22;1953;51.222;6.624;2022-08-24T02:42:25;22.30;1.00
3876;DHT22;1953;51.222;6.624;2022-08-24T02:47:07;22.30;1.00
3876;DHT22;1953;51.222;6.624;2022-08-24T02:51:50;22.20;1.00
3876;DHT22;1953;51.222;6.624;2022-08-24T02:56:32;22.20;1.00
3876;DHT22;1953;51.222;6.624;2022-08-24T03:01:17;22.20;1.00
3876;DHT22;1953;51.222;6.624;2022-08-24T03:05:59;22.10;1.00
3876;DHT22;1953;51.222;6.624;2022-08-24T03:10:41;22.10;1.00
3876;DHT22;1953;51.222;6.624;2022-08-24T03:15:24;22.00;1.00
3876;DHT22;1953;51.222;6.624;2022-08-24T03:20:11;21.90;1.00
3876;DHT22;1953;51.222;6.624;2022-08-24T03:24:54;21.90;1.00
3876;DHT22;1953;51.222;6.624;2022-08-24T03:29:36;21.90;1.00
3876;DHT22;1953;51.222;6.624;2022-08-24T03:34:19;21.90;1.00
3876;DHT22;1953;51.222;6.624;2022-08-24T03:39:03;21.90;1.00
3876;DHT22;1953;51.222;6.624;2022-08-24T03:43:45;21.80;1.00
3876;DHT22;1953;51.222;6.624;2022-08-24T03:48:29;21.70;1.00
3876;DHT22;1953;51.222;6.624;2022-08-24T03:53:11;21.70;1.00
3876;DHT22;1953;51.222;6.624;2022-08-24T03:57:55;21.60;1.00
3876;DHT22;1953;51.222;6.624;2022-08-24T04:02:38;21.60;1.00
3876;DHT22;1953;51.222;6.624;2022-08-24T04:07:21;21.60;1.00
3876;DHT22;1953;51.222;6.624;2022-08-24T04:12:04;21.40;1.00
3876;DHT22;1953;51.222;6.624;2022-08-24T04:16:48;21.40;1.00
3876;DHT22;1953;51.222;6.624;2022-08-24T04:21:32;21.40;1.00
3876;DHT22;1953;51.222;6.624;2022-08-24T04:26:16;21.40;1.00
3876;DHT22;1953;51.222;6.624;2022-08-24T04:30:58;21.30;1.00
3876;DHT22;1953;51.222;6.624;2022-08-24T04:35:44;21.30;1.00
3876;DHT22;1953;51.222;6.624;2022-08-24T04:40:28;21.30;1.00
3876;DHT22;1953;51.222;6.624;2022-08-24T04:45:10;21.20;1.00
3876;DHT22;1953;51.222;6.624;2022-08-24T04:49:53;21.20;1.00
3876;DHT22;1953;51.222;6.624;2022-08-24T04:54:37;21.20;1.00
3876;DHT22;1953;51.222;6.624;2022-08-24T04:59:19;21.20;1.00
3876;DHT22;1953;51.222;6.624;2022-08-24T05:04:02;21.30;1.00
3876;DHT22;1953;51.222;6.624;2022-08-24T05:08:45;21.20;1.00
3876;DHT22;1953;51.222;6.624;2022-08-24T05:13:29;21.30;1.00
3876;DHT22;1953;51.222;6.624;2022-08-24T05:18:14;21.20;1.00
3876;DHT22;1953;51.222;6.624;2022-08-24T05:22:57;21.20;1.00
3876;DHT22;1953;51.222;6.624;2022-08-24T05:27:39;21.20;1.00
3876;DHT22;1953;51.222;6.624;2022-08-24T05:32:23;21.30;1.00
3876;DHT22;1953;51.222;6.624;2022-08-24T05:37:05;21.40;1.00
3876;DHT22;1953;51.222;6.624;2022-08-24T05:41:48;21.40;1.00
3876;DHT22;1953;51.222;6.624;2022-08-24T05:46:31;21.50;1.00
3876;DHT22;1953;51.222;6.624;2022-08-24T05:51:14;21.60;1.00
3876;DHT22;1953;51.222;6.624;2022-08-24T05:55:57;21.60;1.00
3876;DHT22;1953;51.222;6.624;2022-08-24T06:00:40;21.50;1.00
3876;DHT22;1953;51.222;6.624;2022-08-24T06:05:25;21.60;1.00
3876;DHT22;1953;51.222;6.624;2022-08-24T06:10:10;21.70;1.00
3876;DHT22;1953;51.222;6.624;2022-08-24T06:14:52;21.70;1.00
3876;DHT22;1953;51.222;6.624;2022-08-24T06:19:35;21.80;1.00
3876;DHT22;1953;51.222;6.624;2022-08-24T06:24:18;21.90;1.00
3876;DHT22;1953;51.222;6.624;2022-08-24T06:29:22;22.00;1.00
3876;DHT22;1953;51.222;6.624;2022-08-24T06:34:04;22.10;1.00
3876;DHT22;1953;51.222;6.624;2022-08-24T06:38:47;22.20;1.00
3876;DHT22;1953;51.222;6.624;2022-08-24T06:43:30;22.30;1.00
3876;DHT22;1953;51.222;6.624;2022-08-24T06:48:13;22.40;1.00
3876;DHT22;1953;51.222;6.624;2022-08-24T06:52:56;22.60;1.00
3876;DHT22;1953;51.222;6.624;2022-08-24T06:57:38;22.70;1.00
3876;DHT22;1953;51.222;6.624;2022-08-24T07:02:21;22.90;1.00
3876;DHT22;1953;51.222;6.624;2022-08-24T07:07:05;23.00;1.00
3876;DHT22;1953;51.222;6.624;2022-08-24T07:11:48;23.20;1.00
3876;DHT22;1953;51.222;6.624;2022-08-24T07:16:30;23.30;1.00
3876;DHT22;1953;51.222;6.624;2022-08-24T07:21:14;23.50;1.00
3876;DHT22;1953;51.222;6.624;2022-08-24T07:26:05;23.60;1.00
3876;DHT22;1953;51.222;6.624;2022-08-24T07:30:48;25.10;1.00
3876;DHT22;1953;51.222;6.624;2022-08-24T07:35:31;23.90;1.00
3876;DHT22;1953;51.222;6.624;2022-08-24T07:40:14;24.10;1.00
3876;DHT22;1953;51.222;6.624;2022-08-24T07:44:58;24.20;1.00
3876;DHT22;1953;51.222;6.624;2022-08-24T07:49:40;24.40;1.00
3876;DHT22;1953;51.222;6.624;2022-08-24T07:54:23;24.50;1.00
3876;DHT22;1953;51.222;6.624;2022-08-24T07:59:06;24.70;1.00
3876;DHT22;1953;51.222;6.624;2022-08-24T08:03:49;24.90;1.00
3876;DHT22;1953;51.222;6.624;2022-08-24T08:08:34;25.00;1.00
3876;DHT22;1953;51.222;6.624;2022-08-24T08:13:17;25.10;1.00
3876;DHT22;1953;51.222;6.624;2022-08-24T08:17:59;25.30;1.00
3876;DHT22;1953;51.222;6.624;2022-08-24T08:22:44;25.40;1.00
3876;DHT22;1953;51.222;6.624;2022-08-24T08:27:44;25.60;1.00
3876;DHT22;1953;51.222;6.624;2022-08-24T08:32:26;25.70;1.00
3876;DHT22;1953;51.222;6.624;2022-08-24T08:37:09;25.90;1.00
3876;DHT22;1953;51.222;6.624;2022-08-24T08:42:11;26.00;1.00
3876;DHT22;1953;51.222;6.624;2022-08-24T08:47:15;26.10;1.00
3876;DHT22;1953;51.222;6.624;2022-08-24T08:52:36;26.30;1.00
3876;DHT22;1953;51.222;6.624;2022-08-24T08:57:38;26.50;1.00
3876;DHT22;1953;51.222;6.624;2022-08-24T09:02:37;26.60;1.00
3876;DHT22;1953;51.222;6.624;2022-08-24T09:07:37;26.80;1.00
3876;DHT22;1953;51.222;6.624;2022-08-24T09:12:34;26.90;1.00
3876;DHT22;1953;51.222;6.624;2022-08-24T09:17:32;27.20;1.00
3876;DHT22;1953;51.222;6.624;2022-08-24T09:22:19;27.30;1.00
3876;DHT22;1953;51.222;6.624;2022-08-24T09:27:11;27.50;1.00
3876;DHT22;1953;51.222;6.624;2022-08-24T09:32:16;27.80;1.00
3876;DHT22;1953;51.222;6.624;2022-08-24T09:37:26;28.00;1.00
3876;DHT22;1953;51.222;6.624;2022-08-24T09:47:55;28.30;1.00
3876;DHT22;1953;51.222;6.624;2022-08-24T09:58:12;28.70;1.00
3876;DHT22;1953;51.222;6.624;2022-08-24T10:03:12;28.90;1.00
3876;DHT22;1953;51.222;6.624;2022-08-24T10:08:03;29.00;1.00
3876;DHT22;1953;51.222;6.624;2022-08-24T10:12:54;29.00;1.00
3876;DHT22;1953;51.222;6.624;2022-08-24T10:17:48;29.20;1.00
3876;DHT22;1953;51.222;6.624;2022-08-24T10:22:55;29.40;1.00
3876;DHT22;1953;51.222;6.624;2022-08-24T10:27:46;29.60;1.00
3876;DHT22;1953;51.222;6.624;2022-08-24T10:32:44;29.80;1.00
3876;DHT22;1953;51.222;6.624;2022-08-24T10:37:43;30.00;1.00
3876;DHT22;1953;51.222;6.624;2022-08-24T10:42:59;30.10;1.00
3876;DHT22;1953;51.222;6.624;2022-08-24T10:48:15;30.20;1.00
3876;DHT22;1953;51.222;6.624;2022-08-24T10:53:34;30.40;1.00
3876;DHT22;1953;51.222;6.624;2022-08-24T11:03:47;30.60;1.00
3876;DHT22;1953;51.222;6.624;2022-08-24T11:08:30;30.60;1.00
3876;DHT22;1953;51.222;6.624;2022-08-24T11:13:21;30.70;1.00
3876;DHT22;1953;51.222;6.624;2022-08-24T11:18:04;30.80;1.00
3876;DHT22;1953;51.222;6.624;2022-08-24T11:22:57;30.90;1.00
3876;DHT22;1953;51.222;6.624;2022-08-24T11:27:44;31.00;1.00
3876;DHT22;1953;51.222;6.624;2022-08-24T11:32:36;31.10;1.00
3876;DHT22;1953;51.222;6.624;2022-08-24T11:37:22;31.20;1.00
3876;DHT22;1953;51.222;6.624;2022-08-24T11:42:12;31.20;1.00
3876;DHT22;1953;51.222;6.624;2022-08-24T11:47:02;31.30;1.00
3876;DHT22;1953;51.222;6.624;2022-08-24T11:51:53;31.50;1.00
3876;DHT22;1953;51.222;6.624;2022-08-24T11:56:43;31.60;1.00
3876;DHT22;1953;51.222;6.624;2022-08-24T12:01:33;31.70;1.00
3876;DHT22;1953;51.222;6.624;2022-08-24T12:06:49;32.00;1.00
3876;DHT22;1953;51.222;6.624;2022-08-24T12:11:40;32.10;1.00
3876;DHT22;1953;51.222;6.624;2022-08-24T12:16:30;32.40;1.00
3876;DHT22;1953;51.222;6.624;2022-08-24T12:21:18;32.60;1.00
3876;DHT22;1953;51.222;6.624;2022-08-24T12:26:09;33.10;1.00
3876;DHT22;1953;51.222;6.624;2022-08-24T12:31:09;33.70;1.00
3876;DHT22;1953;51.222;6.624;2022-08-24T12:35:55;34.50;1.00
3876;DHT22;1953;51.222;6.624;2022-08-24T12:40:42;35.30;1.00
3876;DHT22;1953;51.222;6.624;2022-08-24T12:45:26;36.10;1.00
3876;DHT22;1953;51.222;6.624;2022-08-24T12:50:15;36.90;1.00
3876;DHT22;1953;51.222;6.624;2022-08-24T12:55:39;37.70;1.00
3876;DHT22;1953;51.222;6.624;2022-08-24T13:00:34;38.10;1.00
3876;DHT22;1953;51.222;6.624;2022-08-24T13:05:18;38.80;1.00
3876;DHT22;1953;51.222;6.624;2022-08-24T13:10:08;39.00;1.00
3876;DHT22;1953;51.222;6.624;2022-08-24T13:14:52;38.10;1.00
3876;DHT22;1953;51.222;6.624;2022-08-24T13:19:40;38.40;1.00
3876;DHT22;1953;51.222;6.624;2022-08-24T13:24:51;39.40;1.00
3876;DHT22;1953;51.222;6.624;2022-08-24T13:29:34;39.10;1.00
3876;DHT22;1953;51.222;6.624;2022-08-24T13:34:43;38.30;1.00
3876;DHT22;1953;51.222;6.624;2022-08-24T13:39:52;38.40;1.00
3876;DHT22;1953;51.222;6.624;2022-08-24T13:45:01;39.30;1.00
3876;DHT22;1953;51.222;6.624;2022-08-24T13:49:57;40.80;1.00
3876;DHT22;1953;51.222;6.624;2022-08-24T13:54:52;41.60;1.00
3876;DHT22;1953;51.222;6.624;2022-08-24T13:59:57;41.80;1.00
3876;DHT22;1953;51.222;6.624;2022-08-24T14:10:39;42.40;1.00
3876;DHT22;1953;51.222;6.624;2022-08-24T14:15:27;42.60;1.00
3876;DHT22;1953;51.222;6.624;2022-08-24T14:25:19;42.80;1.00
3876;DHT22;1953;51.222;6.624;2022-08-24T14:30:38;42.60;1.00
3876;DHT22;1953;51.222;6.624;2022-08-24T14:35:32;42.70;1.00
3876;DHT22;1953;51.222;6.624;2022-08-24T14:40:25;42.70;1.00
3876;DHT22;1953;51.222;6.624;2022-08-24T14:45:10;43.00;1.00
3876;DHT22;1953;51.222;6.624;2022-08-24T14:50:07;42.90;1.00
3876;DHT22;1953;51.222;6.624;2022-08-24T14:55:01;43.00;1.00
3876;DHT22;1953;51.222;6.624;2022-08-24T14:59:54;43.00;1.00
3876;DHT22;1953;51.222;6.624;2022-08-24T15:04:42;43.30;1.00
3876;DHT22;1953;51.222;6.624;2022-08-24T15:09:32;43.10;1.00
3876;DHT22;1953;51.222;6.624;2022-08-24T15:14:24;42.50;1.00
3876;DHT22;1953;51.222;6.624;2022-08-24T15:19:12;42.50;1.00
3876;DHT22;1953;51.222;6.624;2022-08-24T15:24:10;42.10;1.00
3876;DHT22;1953;51.222;6.624;2022-08-24T15:28:57;42.50;1.00
3876;DHT22;1953;51.222;6.624;2022-08-24T15:33:52;42.50;1.00
3876;DHT22;1953;51.222;6.624;2022-08-24T15:38:36;42.00;1.00
3876;DHT22;1953;51.222;6.624;2022-08-24T15:43:18;41.90;1.00
3876;DHT22;1953;51.222;6.624;2022-08-24T15:48:04;42.20;1.00
3876;DHT22;1953;51.222;6.624;2022-08-24T15:52:50;42.50;1.00
3876;DHT22;1953;51.222;6.624;2022-08-24T15:57:38;42.70;1.00
3876;DHT22;1953;51.222;6.624;2022-08-24T16:02:27;42.60;1.00
3876;DHT22;1953;51.222;6.624;2022-08-24T16:07:21;42.70;1.00
3876;DHT22;1953;51.222;6.624;2022-08-24T16:12:06;42.90;1.00
3876;DHT22;1953;51.222;6.624;2022-08-24T16:16:50;42.60;1.00
3876;DHT22;1953;51.222;6.624;2022-08-24T16:21:36;42.70;1.00
3876;DHT22;1953;51.222;6.624;2022-08-24T16:26:24;42.60;1.00
3876;DHT22;1953;51.222;6.624;2022-08-24T16:31:07;42.50;1.00
3876;DHT22;1953;51.222;6.624;2022-08-24T16:35:50;42.30;1.00
3876;DHT22;1953;51.222;6.624;2022-08-24T16:40:32;41.90;1.00
3876;DHT22;1953;51.222;6.624;2022-08-24T16:45:20;41.20;1.00
3876;DHT22;1953;51.222;6.624;2022-08-24T16:50:03;40.50;1.00
3876;DHT22;1953;51.222;6.624;2022-08-24T16:54:47;40.10;1.00
3876;DHT22;1953;51.222;6.624;2022-08-24T16:59:31;39.70;1.00
3876;DHT22;1953;51.222;6.624;2022-08-24T17:04:16;39.50;1.00
3876;DHT22;1953;51.222;6.624;2022-08-24T17:08:58;39.10;1.00
3876;DHT22;1953;51.222;6.624;2022-08-24T17:13:41;39.00;1.00
3876;DHT22;1953;51.222;6.624;2022-08-24T17:18:24;38.80;1.00
3876;DHT22;1953;51.222;6.624;2022-08-24T17:23:08;38.50;1.00
3876;DHT22;1953;51.222;6.624;2022-08-24T17:27:51;38.30;1.00
3876;DHT22;1953;51.222;6.624;2022-08-24T17:32:35;38.00;1.00
3876;DHT22;1953;51.222;6.624;2022-08-24T17:37:17;37.80;1.00
3876;DHT22;1953;51.222;6.624;2022-08-24T17:42:02;37.60;1.00
3876;DHT22;1953;51.222;6.624;2022-08-24T17:46:46;37.20;1.00
3876;DHT22;1953;51.222;6.624;2022-08-24T17:51:29;36.90;1.00
3876;DHT22;1953;51.222;6.624;2022-08-24T17:56:13;36.40;1.00
3876;DHT22;1953;51.222;6.624;2022-08-24T18:00:57;35.90;1.00
3876;DHT22;1953;51.222;6.624;2022-08-24T18:05:40;35.70;1.00
3876;DHT22;1953;51.222;6.624;2022-08-24T18:10:24;35.20;1.00
3876;DHT22;1953;51.222;6.624;2022-08-24T18:15:08;35.00;1.00
3876;DHT22;1953;51.222;6.624;2022-08-24T18:19:53;34.80;1.00
3876;DHT22;1953;51.222;6.624;2022-08-24T18:24:36;34.50;1.00
3876;DHT22;1953;51.222;6.624;2022-08-24T18:29:19;34.20;1.00
3876;DHT22;1953;51.222;6.624;2022-08-24T18:34:02;33.90;1.00
3876;DHT22;1953;51.222;6.624;2022-08-24T18:38:46;33.70;1.00
3876;DHT22;1953;51.222;6.624;2022-08-24T18:43:29;33.40;1.00
3876;DHT22;1953;51.222;6.624;2022-08-24T18:48:11;33.20;1.00
3876;DHT22;1953;51.222;6.624;2022-08-24T18:52:54;33.00;1.00
3876;DHT22;1953;51.222;6.624;2022-08-24T18:57:37;32.80;1.00
3876;DHT22;1953;51.222;6.624;2022-08-24T19:02:21;32.60;1.00
3876;DHT22;1953;51.222;6.624;2022-08-24T19:07:14;32.40;1.00
3876;DHT22;1953;51.222;6.624;2022-08-24T19:11:56;32.30;1.00
3876;DHT22;1953;51.222;6.624;2022-08-24T19:16:40;32.10;1.00
3876;DHT22;1953;51.222;6.624;2022-08-24T19:21:24;31.90;1.00
3876;DHT22;1953;51.222;6.624;2022-08-24T19:26:07;31.70;1.00
3876;DHT22;1953;51.222;6.624;2022-08-24T19:30:53;31.50;1.00
3876;DHT22;1953;51.222;6.624;2022-08-24T19:35:37;31.40;1.00
3876;DHT22;1953;51.222;6.624;2022-08-24T19:40:20;31.20;1.00
3876;DHT22;1953;51.222;6.624;2022-08-24T19:45:03;31.10;1.00
3876;DHT22;1953;51.222;6.624;2022-08-24T19:50:05;31.00;1.00
3876;DHT22;1953;51.222;6.624;2022-08-24T19:54:49;30.90;1.00
3876;DHT22;1953;51.222;6.624;2022-08-24T19:59:33;30.70;1.00
3876;DHT22;1953;51.222;6.624;2022-08-24T20:04:18;30.60;1.00
3876;DHT22;1953;51.222;6.624;2022-08-24T20:09:02;30.50;1.00
3876;DHT22;1953;51.222;6.624;2022-08-24T20:13:47;30.30;1.00
3876;DHT22;1953;51.222;6.624;2022-08-24T20:18:31;30.30;1.00
3876;DHT22;1953;51.222;6.624;2022-08-24T20:23:15;30.20;1.00
3876;DHT22;1953;51.222;6.624;2022-08-24T20:27:58;30.00;1.00
3876;DHT22;1953;51.222;6.624;2022-08-24T20:32:43;29.90;1.00
3876;DHT22;1953;51.222;6.624;2022-08-24T20:37:27;29.80;1.00
3876;DHT22;1953;51.222;6.624;2022-08-24T20:42:11;29.70;1.00
3876;DHT22;1953;51.222;6.624;2022-08-24T20:46:54;29.60;1.00
3876;DHT22;1953;51.222;6.624;2022-08-24T20:51:38;29.50;1.00
3876;DHT22;1953;51.222;6.624;2022-08-24T20:56:22;29.40;1.00
3876;DHT22;1953;51.222;6.624;2022-08-24T21:01:06;29.20;1.00
3876;DHT22;1953;51.222;6.624;2022-08-24T21:05:49;29.00;1.00
3876;DHT22;1953;51.222;6.624;2022-08-24T21:10:33;28.90;1.00
3876;DHT22;1953;51.222;6.624;2022-08-24T21:15:17;28.80;1.00
3876;DHT22;1953;51.222;6.624;2022-08-24T21:19:59;28.70;1.00
3876;DHT22;1953;51.222;6.624;2022-08-24T21:24:42;28.50;1.00
3876;DHT22;1953;51.222;6.624;2022-08-24T21:29:26;28.30;1.00
3876;DHT22;1953;51.222;6.624;2022-08-24T21:34:08;28.10;1.00
3876;DHT22;1953;51.222;6.624;2022-08-24T21:39:08;28.10;1.00
3876;DHT22;1953;51.222;6.624;2022-08-24T21:43:51;27.90;1.00
3876;DHT22;1953;51.222;6.624;2022-08-24T21:48:35;27.80;1.00
3876;DHT22;1953;51.222;6.624;2022-08-24T21:53:17;27.80;1.00
3876;DHT22;1953;51.222;6.624;2022-08-24T21:58:00;27.80;1.00
3876;DHT22;1953;51.222;6.624;2022-08-24T22:02:42;27.70;1.00
3876;DHT22;1953;51.222;6.624;2022-08-24T22:07:26;27.60;1.00
3876;DHT22;1953;51.222;6.624;2022-08-24T22:12:08;27.60;1.00
3876;DHT22;1953;51.222;6.624;2022-08-24T22:16:52;27.60;1.00
3876;DHT22;1953;51.222;6.624;2022-08-24T22:21:39;27.60;1.00
3876;DHT22;1953;51.222;6.624;2022-08-24T22:26:23;27.60;1.00
3876;DHT22;1953;51.222;6.624;2022-08-24T22:31:14;27.60;1.00
3876;DHT22;1953;51.222;6.624;2022-08-24T22:35:57;27.60;1.00
3876;DHT22;1953;51.222;6.624;2022-08-24T22:40:39;27.60;1.00
3876;DHT22;1953;51.222;6.624;2022-08-24T22:45:24;27.60;1.00
3876;DHT22;1953;51.222;6.624;2022-08-24T22:50:07;27.50;1.00
3876;DHT22;1953;51.222;6.624;2022-08-24T22:54:54;27.50;1.00
3876;DHT22;1953;51.222;6.624;2022-08-24T22:59:38;27.40;1.00
3876;DHT22;1953;51.222;6.624;2022-08-24T23:04:25;27.40;1.00
3876;DHT22;1953;51.222;6.624;2022-08-24T23:09:08;27.30;1.00
3876;DHT22;1953;51.222;6.624;2022-08-24T23:13:51;27.30;1.00
3876;DHT22;1953;51.222;6.624;2022-08-24T23:18:33;27.20;1.00
3876;DHT22;1953;51.222;6.624;2022-08-24T23:23:35;27.10;1.00
3876;DHT22;1953;51.222;6.624;2022-08-24T23:28:18;27.00;1.00
3876;DHT22;1953;51.222;6.624;2022-08-24T23:33:01;26.90;1.00
3876;DHT22;1953;51.222;6.624;2022-08-24T23:37:43;26.80;1.00
3876;DHT22;1953;51.222;6.624;2022-08-24T23:42:27;26.70;1.00
3876;DHT22;1953;51.222;6.624;2022-08-24T23:47:09;26.60;1.00
3876;DHT22;1953;51.222;6.624;2022-08-24T23:51:52;26.50;1.00
3876;DHT22;1953;51.222;6.624;2022-08-24T23:56:36;26.40;1.00
